Les articles d'ExpertMaritime.pro


Votre expert maritime indépendant Xavier Braive est disponible sur la zone de Saujon - Port de Ribérou - 17600

(Charente-Maritime - Poitou-Charentes)


Voir plan
Situation :

Le port de Ribérou est un port de pêche et de plaisance situé au fond de l'estuaire de la Seudre, à Saujon. C'est l'un des deux ports de la ville avec celui du Breuil, un peu en aval.

Actif dès le XIe siècle, il prend son aspect actuel à partir de 1842, sous l'impulsion du ministre des travaux publics de l'époque, Jules Dufaure, " enfant du pays", qui tente ainsi de relancer le commerce maritime et les activités halieutiques, alors en déclin.
Idéalement situé, en marge du centre-ville, de la base de loisirs de La Lande et des espaces préservés des marais de la Seudre (chemins de halage transformés en sentiers de promenade), il est devenu un des hauts lieux du tourisme saujonnais, où sont notamment organisés des soirées thématiques et le feu d'artifice du 14 juillet.

En 2011, le port de Ribérou a été l'objet d'un important programme de rénovation urbaine conduit par l'architecte-urbaniste Sophie Blanchet, complétant des efforts déjà mis en œuvre en centre-ville.
Une partie du site est reconvertie en esplanade piétonne, dotée d'un mobilier urbain contemporain : il se veut une sorte de "trait d'union" entre la base de loisirs de La Lande (piscine, tennis, boulodrome, stade, terrain de basket...), les sentiers de promenade et de découverte des marais de la Seudre, qui débutent au port, et le centre-ville.
L'inauguration du nouveau port a lieu le 18 août 2012, en présence du maire, Pascal Ferchaud, et d'une foule nombreuse venue profiter des animations : concerts, jeux nautiques, joutes, etc.

Aujourd'hui, le port de Ribérou est un petit port de pêche et de plaisance. C'est également une base de départ pour certains sports nautiques (canoë-kayak). Sa longueur est d'environ 250 mètres pour 40 mètres.
Depuis Ribérou, il est possible d'atteindre successivement les ports du Breuil (Saujon), de L'Éguille, de Mornac, de Chaillevette, de Chatressac (Chaillevette), des Grandes Roches et d'Orivol (Étaules), de La Grève à Duret et de Coux (Arvert), de La Grève (La Tremblade) et de La Cayenne (Marennes).


En 2011, la municipalité entame un programme de rénovation du site portuaire, confié à l'architecte-urbaniste Sophie Blanchet. Il consiste en une transformation des anciens parkings en esplanade piétonne, véritable espace de rencontre doté d'un mobilier urbain moderne et à terme, d'espaces verts. Depuis les quais, bordés d'immeubles bourgeois, de petites rues pittoresques et fleuries de roses trémières permettent de sillonner le quartier et de rejoindre le centre-ville.

Le pont à écluse de Ribérou, dit « pont des eaux contraires », a été rénové en 2010. Il marque la séparation entre les eaux de l'estuaire (côté port : eaux saumâtres) et les eaux du fleuve (côté bassin de retenue : eaux douces).



Adresse :

Mairie
1, place Denfert Rochereau
17600 SAUJON

Tél/Fax : 05 46 02 80 07 / 05 46 02 91 92

E-mail : contact@mairie-saujon.fr
Météo locale sur la zone Port de Ribérou
Heure (UTC) Dir.Vent Vit.Vent (nds) Force (Bft) T°min T°max P (mb) Hum.Rel.
20/10/2021 - 12:00:00 au 20/10/2021 - 15:00:00 227° (SW) 15 4 19°C 19°C 1014 86 %
20/10/2021 - 15:00:00 au 20/10/2021 - 18:00:00 228° (SW) 16 4 18°C 19°C 1012 82 %
20/10/2021 - 18:00:00 au 20/10/2021 - 21:00:00 251° (WSW) 23 6 17°C 17°C 1012 73 %
20/10/2021 - 21:00:00 au 21/10/2021 - 00:00:00 256° (WSW) 26 6 16°C 16°C 1013 72 %
21/10/2021 - 00:00:00 au 21/10/2021 - 03:00:00 281° (W) 20 5 15°C 15°C 1016 73 %
21/10/2021 - 03:00:00 au 21/10/2021 - 06:00:00 287° (WNW) 14 4 15°C 15°C 1018 65 %
21/10/2021 - 06:00:00 au 21/10/2021 - 09:00:00 261° (W) 12 4 16°C 16°C 1019 62 %
21/10/2021 - 09:00:00 au 21/10/2021 - 12:00:00 261° (W) 15 4 17°C 17°C 1018 64 %
21/10/2021 - 12:00:00 au 21/10/2021 - 15:00:00 266° (W) 15 4 17°C 17°C 1017 64 %
21/10/2021 - 15:00:00 au 21/10/2021 - 18:00:00 279° (W) 12 4 15°C 15°C 1018 80 %
21/10/2021 - 18:00:00 au 21/10/2021 - 21:00:00 295° (WNW) 9 3 14°C 14°C 1018 82 %
21/10/2021 - 21:00:00 au 22/10/2021 - 00:00:00 007° (N) 11 4 10°C 10°C 1020 89 %
22/10/2021 - 00:00:00 au 22/10/2021 - 03:00:00 009° (N) 9 3 9°C 9°C 1021 90 %
22/10/2021 - 03:00:00 au 22/10/2021 - 06:00:00 017° (NNE) 8 3 7°C 7°C 1023 88 %
22/10/2021 - 06:00:00 au 22/10/2021 - 09:00:00 035° (NE) 10 3 10°C 10°C 1025 64 %
22/10/2021 - 09:00:00 au 22/10/2021 - 12:00:00 028° (NNE) 10 3 14°C 14°C 1026 41 %
22/10/2021 - 12:00:00 au 22/10/2021 - 15:00:00 014° (NNE) 10 3 15°C 15°C 1025 37 %
22/10/2021 - 15:00:00 au 22/10/2021 - 18:00:00 034° (NE) 7 3 11°C 11°C 1026 47 %
22/10/2021 - 18:00:00 au 22/10/2021 - 21:00:00 046° (NE) 7 3 9°C 9°C 1027 53 %
22/10/2021 - 21:00:00 au 23/10/2021 - 00:00:00 056° (NE) 6 2 7°C 7°C 1027 64 %
23/10/2021 - 00:00:00 au 23/10/2021 - 03:00:00 073° (ENE) 6 2 6°C 6°C 1026 70 %
23/10/2021 - 03:00:00 au 23/10/2021 - 06:00:00 078° (ENE) 6 2 6°C 6°C 1026 75 %
23/10/2021 - 06:00:00 au 23/10/2021 - 09:00:00 080° (E) 8 3 11°C 11°C 1026 57 %
23/10/2021 - 09:00:00 au 23/10/2021 - 12:00:00 077° (ENE) 9 3 15°C 15°C 1024 41 %
23/10/2021 - 12:00:00 au 23/10/2021 - 15:00:00 068° (ENE) 8 3 17°C 17°C 1022 37 %
23/10/2021 - 15:00:00 au 23/10/2021 - 18:00:00 066° (ENE) 7 3 12°C 12°C 1022 51 %
23/10/2021 - 18:00:00 au 23/10/2021 - 21:00:00 100° (E) 7 3 9°C 9°C 1022 61 %
23/10/2021 - 21:00:00 au 24/10/2021 - 00:00:00 121° (ESE) 5 2 8°C 8°C 1021 67 %
24/10/2021 - 00:00:00 au 24/10/2021 - 03:00:00 132° (SE) 6 2 8°C 8°C 1021 70 %
24/10/2021 - 03:00:00 au 24/10/2021 - 06:00:00 151° (SSE) 6 2 7°C 7°C 1021 73 %
24/10/2021 - 06:00:00 au 24/10/2021 - 09:00:00 157° (SSE) 7 3 12°C 12°C 1022 55 %
24/10/2021 - 09:00:00 au 24/10/2021 - 12:00:00 181° (S) 7 3 16°C 16°C 1021 37 %
24/10/2021 - 12:00:00 au 24/10/2021 - 15:00:00 222° (SW) 6 2 17°C 17°C 1021 38 %
24/10/2021 - 15:00:00 au 24/10/2021 - 18:00:00 234° (SW) 5 2 12°C 12°C 1021 70 %
24/10/2021 - 18:00:00 au 24/10/2021 - 21:00:00 199° (SSW) 6 2 13°C 13°C 1021 84 %
24/10/2021 - 21:00:00 au 25/10/2021 - 00:00:00 198° (SSW) 7 3 14°C 14°C 1021 93 %
25/10/2021 - 00:00:00 au 25/10/2021 - 03:00:00 200° (SSW) 5 2 14°C 14°C 1021 93 %
25/10/2021 - 03:00:00 au 25/10/2021 - 06:00:00 260° (W) 2 1 13°C 13°C 1020 92 %
25/10/2021 - 06:00:00 au 25/10/2021 - 09:00:00 304° (NW) 4 2 16°C 16°C 1021 78 %
25/10/2021 - 09:00:00 au 25/10/2021 - 12:00:00 286° (WNW) 7 3 18°C 18°C 1021 60 %
openweathermap
Ces informations sont partiellement extraites de Wikipedia, et des sites pertinents pour cette zone. Compilation d'informations de Xavier Braive.
Xavier Braive, Expert Maritime Plaisance se déplace sur Port de Ribérou, Saujon, 17600, Charente-Maritime

Welcome to Cross-Channel yachtmen !

we can deliver survey reports in english, in case of dammage or prior to buy / sell a boat in France (pre-purchase survey), and more specifically on the Atlantic coast.

Uw onafhankelijk jachtexpert

verkrijkbaar op de Atlantische kust, bij aankoop of reparatie van jachten (metaal, polyester of composiet). Rapporten in Nederlands

BRAIVE, Xavier
Xavier Braive
Expert Maritime
Nouvelle Aquitaine
France
06 71 50 20 17